METAR AND TAF INFORMATION
METAR FOR MWCR
ADDS - METARS form results

(1053 UTC 21 January 2018)
Data provider http://aviationweather.gov/adds/metars/
 
Forecast for: MWCR (GRND CAYMAN/OWEN, KY)
Text: TAF MWCR 202300Z 2100/2124 07012G22KT 9999 -SHRA SCT016 BKN035
Forecast period: 0000 UTC 21 January 2018 to 0000 UTC 22 January 2018
Forecast type: FROM: standard forecast or significant change
Winds: from the ENE (70 degrees) at 14 MPH (12 knots; 6.2 m/s)
gusting to 25 MPH (22 knots; 11.4 m/s)
Visibility: 6 or more miles (10+ km)
Ceiling: 3500 feet AGL
Clouds: scattered clouds at 1600 feet AGL
broken clouds at 3500 feet AGL
Weather: -SHRA  (light rain showers)

 AIRPORT MAP

 RUNWAY INFORMATION
Runway 08 Runway length 7021 ft Runway width 148 ft
Runway elevation 8 ft Runway displaced threshold 0 ft Runway heading 76
Runway 26 Runway length 7021 ft Runway width 148 ft
Runway elevation 6 ft Runway displaced threshold 400 ft Runway heading 256

 AIRPORT FREQUENCIES
Type A/D Name GRAND CAYM Frequency 120.2 MHZ
Type ATIS Name ATIS Frequency 132.35 MHZ
Type CNTR Name KINGSTON C Frequency 128.1 MHZ
Type GND Name GND Frequency 121.9 MHZ
Type TWR Name TWR Frequency 118 MHZ

 AIRPORT NEAR NAVIGATION AIDS
Type VOR-DME Name Grand Cayman Frequency 115600 KHZ
Type NDB Name Grand Cayman Frequency 344 KHZ



v2.6.1